createdAt,value
2022-09-05T00:00:05.359Z,20.93
2022-09-05T00:02:48.942Z,20.80
2022-09-05T00:06:03.218Z,20.76
2022-09-05T00:08:40.946Z,20.74
2022-09-05T00:11:43.295Z,20.81
2022-09-05T00:14:34.347Z,20.94
2022-09-05T00:17:43.760Z,20.87
2022-09-05T00:24:25.895Z,20.65
2022-09-05T00:24:28.688Z,20.61
2022-09-05T00:26:18.869Z,20.79
2022-09-05T00:28:57.660Z,20.82
2022-09-05T00:31:55.175Z,20.75
2022-09-05T00:34:59.716Z,20.75
2022-09-05T00:37:33.746Z,20.70
2022-09-05T00:40:31.380Z,20.68
2022-09-05T00:43:03.206Z,20.54
2022-09-05T00:45:36.367Z,20.65
2022-09-05T00:48:16.647Z,20.64
2022-09-05T00:50:59.675Z,20.63
2022-09-05T00:53:37.947Z,20.53
2022-09-05T00:56:21.282Z,20.50
2022-09-05T00:58:59.674Z,20.43
2022-09-05T01:01:32.682Z,20.34
2022-09-05T01:04:19.751Z,20.47
2022-09-05T01:07:04.832Z,20.44
2022-09-05T01:09:47.955Z,20.36
2022-09-05T01:12:36.068Z,20.35
2022-09-05T01:15:22.444Z,20.36
2022-09-05T01:18:08.113Z,20.35
2022-09-05T01:20:51.533Z,20.38
2022-09-05T01:24:00.901Z,20.46
2022-09-05T01:26:54.846Z,20.44
2022-09-05T01:29:31.131Z,20.40
2022-09-05T01:32:15.686Z,20.38
2022-09-05T01:34:58.041Z,20.44
2022-09-05T01:37:37.410Z,20.41
2022-09-05T01:40:19.587Z,20.38
2022-09-05T01:43:12.029Z,20.40
2022-09-05T01:45:51.220Z,20.46
2022-09-05T01:48:37.636Z,20.44
2022-09-05T01:51:28.743Z,20.42
2022-09-05T01:54:19.845Z,20.36
2022-09-05T01:57:08.949Z,20.36
2022-09-05T01:59:46.055Z,20.31
2022-09-05T02:02:39.555Z,20.26
2022-09-05T02:05:48.503Z,20.30
2022-09-05T02:08:56.130Z,20.31
2022-09-05T02:11:41.992Z,20.25
2022-09-05T02:14:28.820Z,20.23
2022-09-05T02:17:27.431Z,20.21
2022-09-05T02:20:13.826Z,20.21
2022-09-05T02:23:01.583Z,20.16
2022-09-05T02:26:01.592Z,20.18
2022-09-05T02:28:38.240Z,20.20
2022-09-05T02:31:20.087Z,20.20
2022-09-05T02:34:02.095Z,20.20
2022-09-05T02:36:41.074Z,20.15
2022-09-05T02:45:01.649Z,20.14
2022-09-05T02:45:17.494Z,20.16
2022-09-05T02:45:26.825Z,20.03
2022-09-05T02:48:14.721Z,19.99
2022-09-05T02:57:23.894Z,19.93
2022-09-05T02:57:34.407Z,19.89
2022-09-05T02:57:36.858Z,19.93
2022-09-05T02:59:51.526Z,19.85
2022-09-05T03:02:28.702Z,19.82
2022-09-05T03:05:04.944Z,19.88
2022-09-05T03:08:02.431Z,19.82
2022-09-05T03:11:04.199Z,19.78
2022-09-05T03:14:12.195Z,19.78
2022-09-05T03:17:13.461Z,19.80
2022-09-05T03:20:12.163Z,19.69
2022-09-05T03:23:05.027Z,19.62
2022-09-05T03:26:09.094Z,19.66
2022-09-05T03:29:11.496Z,19.63
2022-09-05T03:32:15.089Z,19.56
2022-09-05T03:35:08.686Z,19.46
2022-09-05T03:37:54.931Z,19.43
2022-09-05T03:40:59.371Z,19.41
2022-09-05T03:43:59.476Z,19.40
2022-09-05T03:46:58.478Z,19.41
2022-09-05T03:51:39.441Z,19.52
2022-09-05T03:57:08.275Z,19.57
2022-09-05T03:57:17.060Z,19.61
2022-09-05T03:58:57.400Z,19.50
2022-09-05T04:03:20.279Z,19.42
2022-09-05T04:08:11.549Z,19.29
2022-09-05T04:08:27.485Z,19.39
2022-09-05T04:10:24.749Z,19.42
2022-09-05T04:12:58.823Z,19.46
2022-09-05T04:15:39.283Z,19.39
2022-09-05T04:18:28.015Z,19.32
2022-09-05T04:21:06.131Z,19.39
2022-09-05T04:23:44.421Z,19.41
2022-09-05T04:26:26.083Z,19.32
2022-09-05T04:29:05.518Z,19.39
2022-09-05T04:31:45.407Z,19.49
2022-09-05T04:34:34.877Z,19.53
2022-09-05T04:37:04.990Z,19.54
2022-09-05T04:39:35.746Z,19.55
2022-09-05T04:42:19.879Z,19.58
2022-09-05T04:44:55.840Z,19.59
2022-09-05T04:47:30.073Z,19.58
2022-09-05T04:50:07.146Z,19.53
2022-09-05T04:52:54.026Z,19.49
2022-09-05T04:55:26.011Z,19.50
2022-09-05T04:57:59.772Z,19.50
2022-09-05T05:04:53.525Z,19.49
2022-09-05T05:06:09.092Z,19.49
2022-09-05T05:06:44.102Z,19.51
2022-09-05T05:09:21.813Z,19.53
2022-09-05T05:17:53.833Z,19.53
2022-09-05T05:18:10.724Z,19.50
2022-09-05T05:18:11.813Z,19.50
2022-09-05T05:20:42.579Z,19.56
2022-09-05T05:23:18.086Z,19.61
2022-09-05T05:25:51.692Z,19.60
2022-09-05T05:28:28.587Z,19.54
2022-09-05T05:31:01.480Z,19.58
2022-09-05T05:33:35.019Z,19.64
2022-09-05T05:36:05.156Z,19.68
2022-09-05T05:38:41.040Z,19.68
2022-09-05T05:41:18.551Z,19.69
2022-09-05T05:43:48.183Z,19.65
2022-09-05T05:46:27.801Z,19.67
2022-09-05T05:49:08.612Z,19.73
2022-09-05T05:52:01.175Z,19.76
2022-09-05T05:54:38.370Z,19.81
2022-09-05T05:57:37.850Z,19.87
2022-09-05T06:00:14.878Z,19.87
2022-09-05T06:03:35.513Z,19.56
2022-09-05T06:06:14.987Z,19.50
2022-09-05T06:12:48.735Z,19.62
2022-09-05T06:14:58.564Z,19.76
2022-09-05T06:16:50.481Z,19.85
2022-09-05T06:22:04.146Z,19.99
2022-09-05T06:23:36.687Z,19.95
2022-09-05T06:26:34.015Z,19.91
2022-09-05T06:29:13.620Z,19.87
2022-09-05T06:32:02.374Z,20.02
2022-09-05T06:35:00.192Z,20.19
2022-09-05T06:37:39.794Z,20.25
2022-09-05T06:40:17.693Z,20.25
2022-09-05T06:43:03.904Z,20.10
2022-09-05T06:45:44.235Z,19.87
2022-09-05T06:48:44.729Z,19.79
2022-09-05T06:51:44.154Z,19.84
2022-09-05T06:54:59.945Z,19.97
2022-09-05T06:57:50.014Z,20.12
2022-09-05T07:00:23.763Z,20.25
2022-09-05T07:03:20.248Z,20.32
2022-09-05T07:05:57.767Z,20.34
2022-09-05T07:08:37.153Z,20.31
2022-09-05T07:11:15.549Z,20.29
2022-09-05T07:13:55.994Z,20.33
2022-09-05T07:16:37.727Z,20.42
2022-09-05T07:19:27.057Z,20.47
2022-09-05T07:22:48.038Z,20.51
2022-09-05T07:25:18.037Z,20.47
2022-09-05T07:28:25.944Z,20.60
2022-09-05T07:30:47.969Z,20.72
2022-09-05T07:33:21.198Z,20.80
2022-09-05T07:35:52.572Z,20.91
2022-09-05T07:38:26.713Z,21.00
2022-09-05T07:41:13.740Z,21.03
2022-09-05T07:43:46.500Z,21.02
2022-09-05T07:46:18.931Z,21.08
2022-09-05T07:48:51.340Z,21.14
2022-09-05T07:56:49.385Z,21.13
2022-09-05T07:57:06.380Z,21.20
2022-09-05T07:57:27.212Z,21.36
2022-09-05T08:00:05.424Z,21.44
2022-09-05T08:02:47.002Z,21.60
2022-09-05T08:05:26.536Z,21.75
2022-09-05T08:08:09.732Z,21.92
2022-09-05T08:11:22.275Z,22.03
2022-09-05T08:13:50.001Z,22.11
2022-09-05T08:16:22.699Z,22.21
2022-09-05T08:18:55.378Z,22.28
2022-09-05T08:21:28.400Z,22.31
2022-09-05T08:24:05.546Z,22.36
2022-09-05T08:26:47.287Z,22.28
2022-09-05T08:29:28.328Z,22.29
2022-09-05T08:32:01.625Z,22.31
2022-09-05T08:34:45.361Z,22.40
2022-09-05T08:37:21.408Z,22.45
2022-09-05T08:40:03.918Z,22.47
2022-09-05T08:43:29.492Z,22.45
2022-09-05T08:46:40.696Z,22.30
2022-09-05T08:48:47.264Z,22.32
2022-09-05T08:51:30.780Z,22.40
2022-09-05T08:54:16.975Z,22.40
2022-09-05T08:56:54.553Z,22.39
2022-09-05T08:59:33.440Z,22.46
2022-09-05T09:02:47.820Z,22.45
2022-09-05T09:05:24.056Z,22.41
2022-09-05T09:07:58.088Z,22.59
2022-09-05T09:10:47.167Z,22.70
2022-09-05T09:13:32.182Z,22.75
2022-09-05T09:16:06.842Z,22.77
2022-09-05T09:18:45.372Z,22.88
2022-09-05T09:21:26.264Z,23.03
2022-09-05T09:24:07.188Z,23.19
2022-09-05T09:26:43.542Z,23.11
2022-09-05T09:29:14.537Z,23.25
2022-09-05T09:32:05.542Z,23.37
2022-09-05T09:35:21.360Z,23.47
2022-09-05T09:38:07.362Z,23.51
2022-09-05T09:41:04.645Z,23.51
2022-09-05T09:43:53.190Z,23.54
2022-09-05T09:46:34.107Z,23.62
2022-09-05T09:49:23.776Z,23.56
2022-09-05T09:52:39.936Z,23.56
2022-09-05T09:55:48.917Z,23.71
2022-09-05T09:58:45.367Z,23.87
2022-09-05T10:01:37.011Z,24.00
2022-09-05T10:10:33.716Z,24.08
2022-09-05T10:10:56.270Z,24.15
2022-09-05T10:14:49.659Z,24.33
2022-09-05T10:17:56.018Z,24.41
2022-09-05T10:21:15.406Z,24.47
2022-09-05T10:24:08.923Z,24.58
2022-09-05T10:27:00.460Z,24.57
2022-09-05T10:29:47.902Z,24.68
2022-09-05T10:35:04.416Z,24.75
2022-09-05T10:35:25.760Z,24.71
2022-09-05T10:38:00.884Z,24.76
2022-09-05T10:41:14.649Z,24.84
2022-09-05T10:43:29.952Z,25.00
2022-09-05T10:46:09.492Z,25.08
2022-09-05T10:48:53.058Z,25.10
2022-09-05T10:51:30.463Z,25.01
2022-09-05T10:54:16.347Z,24.85
2022-09-05T10:56:48.336Z,24.93
2022-09-05T11:02:20.101Z,25.07
2022-09-05T11:02:28.059Z,25.16
2022-09-05T11:05:10.795Z,25.30
2022-09-05T11:07:49.179Z,25.33
2022-09-05T11:10:23.456Z,25.33
2022-09-05T11:13:05.775Z,25.42
2022-09-05T11:16:03.681Z,25.54
2022-09-05T11:18:55.540Z,25.65
2022-09-05T11:21:31.343Z,25.65
2022-09-05T11:24:09.656Z,25.70
2022-09-05T11:26:43.489Z,25.67
2022-09-05T11:29:22.599Z,25.65
2022-09-05T11:37:29.349Z,25.68
2022-09-05T11:39:57.302Z,25.65
2022-09-05T11:39:58.279Z,25.63
2022-09-05T11:41:54.247Z,25.86
2022-09-05T11:44:30.548Z,25.77
2022-09-05T11:47:44.355Z,25.77
2022-09-05T11:50:41.837Z,25.87
2022-09-05T11:53:41.967Z,25.96
2022-09-05T11:56:38.051Z,26.05
2022-09-05T11:59:45.151Z,26.13
2022-09-05T12:02:38.951Z,26.17
2022-09-05T12:05:50.385Z,26.16
2022-09-05T12:08:36.379Z,26.23
2022-09-05T12:11:21.039Z,26.31
2022-09-05T12:13:55.794Z,26.38
2022-09-05T12:16:51.101Z,26.35
2022-09-05T12:19:32.884Z,26.41
2022-09-05T12:22:36.934Z,26.57
2022-09-05T12:27:43.063Z,26.52
2022-09-05T12:29:26.280Z,26.60
2022-09-05T12:32:41.688Z,26.55
2022-09-05T12:36:07.463Z,26.58
2022-09-05T12:40:32.570Z,26.69
2022-09-05T12:41:35.165Z,26.90
2022-09-05T12:43:39.387Z,26.69
2022-09-05T12:45:56.776Z,26.71
2022-09-05T12:48:38.935Z,26.77
2022-09-05T12:51:45.402Z,26.82
2022-09-05T12:54:09.457Z,26.81
2022-09-05T13:00:41.180Z,26.73
2022-09-05T13:03:05.547Z,26.78
2022-09-05T13:03:12.395Z,26.91
2022-09-05T13:05:52.198Z,27.19
2022-09-05T13:08:27.711Z,27.23
2022-09-05T13:14:47.446Z,27.38
2022-09-05T13:14:53.364Z,27.29
2022-09-05T13:16:45.702Z,27.39
2022-09-05T13:19:37.374Z,27.41
2022-09-05T13:22:08.671Z,27.32
2022-09-05T13:24:41.770Z,27.47
2022-09-05T13:27:14.827Z,27.48
2022-09-05T13:31:39.308Z,27.47
2022-09-05T13:38:06.156Z,27.57
2022-09-05T13:38:21.302Z,27.71
2022-09-05T13:38:47.716Z,27.53
2022-09-05T13:41:28.286Z,27.64
2022-09-05T13:44:00.377Z,27.78
2022-09-05T13:46:58.928Z,27.98
2022-09-05T13:49:33.370Z,28.15
2022-09-05T13:52:26.290Z,28.21
2022-09-05T13:55:07.344Z,28.33
2022-09-05T13:57:41.564Z,28.56
2022-09-05T14:00:51.495Z,28.74
2022-09-05T14:03:47.423Z,28.91
2022-09-05T14:06:47.449Z,28.86
2022-09-05T14:09:36.941Z,28.62
2022-09-05T14:12:15.231Z,28.76
2022-09-05T14:17:56.229Z,28.56
2022-09-05T14:20:49.486Z,28.65
2022-09-05T14:23:24.295Z,28.90
2022-09-05T14:25:56.317Z,28.78
2022-09-05T14:28:29.056Z,28.72
2022-09-05T14:37:13.016Z,28.69
2022-09-05T14:37:50.571Z,29.01
2022-09-05T14:37:50.670Z,28.81
2022-09-05T14:40:43.339Z,28.85
2022-09-05T14:43:44.265Z,28.80
2022-09-05T14:46:33.469Z,29.09
2022-09-05T14:49:18.340Z,29.31
2022-09-05T14:51:48.329Z,29.56
2022-09-05T15:02:39.689Z,29.80
2022-09-05T15:02:48.564Z,29.83
2022-09-05T15:03:06.030Z,29.85
2022-09-05T15:05:41.204Z,29.78
2022-09-05T15:08:44.644Z,29.77
2022-09-05T15:12:18.641Z,29.67
2022-09-05T15:13:57.674Z,29.78
2022-09-05T15:16:26.857Z,29.84
2022-09-05T15:18:56.425Z,29.96
2022-09-05T15:21:33.555Z,29.50
2022-09-05T15:24:14.907Z,29.33
2022-09-05T15:26:53.156Z,29.25
2022-09-05T15:29:24.655Z,29.33
2022-09-05T15:32:09.584Z,29.56
2022-09-05T15:34:40.227Z,29.65
2022-09-05T15:37:30.687Z,29.74
2022-09-05T15:40:07.611Z,29.90
2022-09-05T15:42:55.281Z,30.07
2022-09-05T15:45:26.681Z,30.14
2022-09-05T15:48:17.105Z,30.17
2022-09-05T15:50:51.929Z,30.02
2022-09-05T15:53:25.501Z,29.94
2022-09-05T15:56:00.198Z,30.06
2022-09-05T15:58:53.119Z,29.82
2022-09-05T16:01:30.555Z,29.77
2022-09-05T16:06:00.799Z,29.67
2022-09-05T16:10:39.231Z,29.75
2022-09-05T16:10:43.755Z,29.85
2022-09-05T16:12:47.984Z,30.10
2022-09-05T16:17:08.375Z,30.17
2022-09-05T16:23:16.960Z,30.04
2022-09-05T16:23:24.446Z,29.88
2022-09-05T16:24:04.873Z,29.93
2022-09-05T16:26:40.023Z,30.10
2022-09-05T16:29:22.509Z,29.90
2022-09-05T16:32:09.381Z,29.66
2022-09-05T16:34:47.609Z,29.66
2022-09-05T16:37:19.262Z,29.54
2022-09-05T16:39:53.513Z,29.36
2022-09-05T16:42:46.615Z,29.57
2022-09-05T16:45:26.693Z,29.46
2022-09-05T16:48:03.339Z,28.97
2022-09-05T16:50:36.916Z,28.58
2022-09-05T16:53:30.198Z,28.61
2022-09-05T16:56:12.002Z,28.66
2022-09-05T16:58:43.220Z,28.72
2022-09-05T17:01:46.550Z,28.41
2022-09-05T17:04:20.771Z,28.22
2022-09-05T17:06:56.488Z,28.08
2022-09-05T17:09:27.312Z,27.84
2022-09-05T17:12:02.184Z,27.77
2022-09-05T17:14:35.897Z,27.68
2022-09-05T17:17:40.204Z,27.67
2022-09-05T17:20:06.917Z,27.65
2022-09-05T17:24:25.806Z,27.61
2022-09-05T17:29:24.242Z,27.56
2022-09-05T17:29:24.829Z,27.59
2022-09-05T17:31:57.036Z,27.52
2022-09-05T17:34:49.678Z,27.45
2022-09-05T17:38:00.805Z,27.26
2022-09-05T17:41:08.043Z,27.18
2022-09-05T17:43:39.686Z,27.15
2022-09-05T17:46:20.147Z,27.16
2022-09-05T17:49:17.905Z,27.10
2022-09-05T17:52:18.359Z,27.06
2022-09-05T17:54:49.629Z,27.03
2022-09-05T17:57:41.041Z,26.97
2022-09-05T18:01:00.040Z,26.94
2022-09-05T18:04:16.070Z,26.87
2022-09-05T18:07:46.704Z,26.76
2022-09-05T18:10:35.720Z,26.52
2022-09-05T18:13:32.305Z,26.36
2022-09-05T18:16:13.175Z,26.23
2022-09-05T18:21:50.467Z,25.94
2022-09-05T18:24:33.254Z,25.85
2022-09-05T18:28:03.087Z,25.77
2022-09-05T18:30:10.186Z,25.70
2022-09-05T18:32:40.537Z,25.70
2022-09-05T18:35:36.133Z,25.63
2022-09-05T18:38:49.975Z,25.49
2022-09-05T18:41:19.329Z,25.59
2022-09-05T18:44:13.902Z,25.72
2022-09-05T18:46:47.869Z,25.66
2022-09-05T18:50:24.660Z,25.72
2022-09-05T18:52:17.291Z,25.76
2022-09-05T18:55:34.066Z,25.73
2022-09-05T18:57:51.238Z,25.49
2022-09-05T19:00:41.688Z,25.47
2022-09-05T19:03:25.039Z,25.56
2022-09-05T19:06:35.214Z,25.54
2022-09-05T19:08:48.846Z,25.52
2022-09-05T19:11:28.919Z,25.51
2022-09-05T19:14:26.116Z,25.39
2022-09-05T19:16:50.806Z,25.30
2022-09-05T19:19:24.466Z,25.35
2022-09-05T19:22:09.070Z,25.37
2022-09-05T19:24:45.857Z,25.33
2022-09-05T19:27:53.231Z,25.27
2022-09-05T19:36:46.652Z,25.19
2022-09-05T19:36:52.703Z,25.06
2022-09-05T19:37:11.971Z,25.14
2022-09-05T19:39:57.721Z,25.06
2022-09-05T19:47:35.725Z,24.96
2022-09-05T19:47:42.047Z,24.90
2022-09-05T19:47:51.744Z,25.01
2022-09-05T19:50:11.328Z,24.83
2022-09-05T19:52:41.002Z,24.77
2022-09-05T19:55:21.906Z,24.77
2022-09-05T19:57:55.670Z,24.76
2022-09-05T20:00:41.933Z,24.75
2022-09-05T20:03:21.360Z,24.73
2022-09-05T20:05:50.842Z,24.66
2022-09-05T20:08:32.538Z,24.64
2022-09-05T20:11:04.560Z,24.61
2022-09-05T20:13:32.962Z,24.60
2022-09-05T20:16:02.453Z,24.52
2022-09-05T20:18:37.722Z,24.45
2022-09-05T20:21:11.492Z,24.45
2022-09-05T20:23:44.308Z,24.38
2022-09-05T20:26:13.182Z,24.37
2022-09-05T20:28:43.187Z,24.33
2022-09-05T20:31:16.038Z,24.24
2022-09-05T20:33:51.691Z,24.23
2022-09-05T20:40:40.175Z,24.23
2022-09-05T20:43:17.606Z,24.18
2022-09-05T20:43:27.108Z,24.24
2022-09-05T20:44:52.771Z,24.18
2022-09-05T20:52:38.071Z,24.24
2022-09-05T20:54:20.154Z,24.16
2022-09-05T20:54:20.541Z,24.07
2022-09-05T20:56:21.034Z,23.98
2022-09-05T20:58:51.259Z,23.93
2022-09-05T21:01:23.528Z,23.72
2022-09-05T21:03:57.282Z,23.78
2022-09-05T21:06:31.696Z,23.84
2022-09-05T21:09:25.350Z,23.84
2022-09-05T21:11:58.780Z,23.84
2022-09-05T21:14:29.517Z,23.69
2022-09-05T21:16:59.760Z,23.65
2022-09-05T21:19:31.476Z,23.56
2022-09-05T21:22:04.786Z,23.55
2022-09-05T21:24:32.858Z,23.63
2022-09-05T21:27:17.446Z,23.69
2022-09-05T21:29:52.969Z,23.78
2022-09-05T21:32:37.835Z,23.78
2022-09-05T21:35:16.033Z,23.75
2022-09-05T21:38:01.521Z,23.63
2022-09-05T21:40:29.639Z,23.55
2022-09-05T21:46:07.298Z,23.54
2022-09-05T21:47:49.554Z,23.57
2022-09-05T21:48:37.833Z,23.51
2022-09-05T21:51:09.570Z,23.39
2022-09-05T21:58:37.605Z,23.41
2022-09-05T21:59:24.927Z,23.31
2022-09-05T21:59:36.767Z,23.26
2022-09-05T22:02:07.171Z,23.34
2022-09-05T22:04:41.284Z,23.35
2022-09-05T22:07:12.807Z,23.38
2022-09-05T22:09:40.816Z,23.38
2022-09-05T22:12:30.795Z,23.40
2022-09-05T22:15:28.373Z,23.36
2022-09-05T22:17:48.089Z,23.29
2022-09-05T22:20:21.081Z,23.28
2022-09-05T22:22:56.271Z,23.24
2022-09-05T22:25:28.516Z,23.24
2022-09-05T22:28:01.748Z,23.20
2022-09-05T22:30:31.157Z,23.15
2022-09-05T22:32:59.231Z,23.15
2022-09-05T22:35:28.957Z,23.09
2022-09-05T22:38:01.858Z,23.07
2022-09-05T22:40:31.662Z,23.10
2022-09-05T22:43:01.338Z,23.06
2022-09-05T22:45:32.540Z,22.90
2022-09-05T22:48:06.412Z,22.77
2022-09-05T22:50:34.501Z,22.78
2022-09-05T22:53:06.716Z,22.83
2022-09-05T22:55:35.304Z,22.88
2022-09-05T22:58:03.787Z,22.92
2022-09-05T23:00:34.635Z,22.92
2022-09-05T23:03:04.959Z,22.90
2022-09-05T23:05:33.879Z,22.94
2022-09-05T23:08:03.418Z,22.87
2022-09-05T23:10:32.321Z,22.76
2022-09-05T23:13:00.638Z,22.73
2022-09-05T23:15:28.705Z,22.76
2022-09-05T23:17:59.932Z,22.78
2022-09-05T23:20:29.836Z,22.82
2022-09-05T23:22:58.467Z,22.78
2022-09-05T23:25:26.544Z,22.70
2022-09-05T23:27:54.813Z,22.55
2022-09-05T23:30:22.816Z,22.44
2022-09-05T23:32:52.620Z,22.46
2022-09-05T23:35:22.179Z,22.54
2022-09-05T23:37:50.461Z,22.55
2022-09-05T23:40:21.999Z,22.50
2022-09-05T23:42:54.138Z,22.46
2022-09-05T23:45:23.008Z,22.44
2022-09-05T23:47:51.239Z,22.40
2022-09-05T23:50:21.646Z,22.44
2022-09-05T23:52:49.839Z,22.39
2022-09-05T23:55:19.478Z,22.38
2022-09-05T23:57:47.958Z,22.38
